createdAt,value
2017-05-30T00:00:47.682Z,1004.34
2017-05-30T00:01:49.306Z,1004.30
2017-05-30T00:02:50.977Z,1004.31
2017-05-30T00:03:52.619Z,1004.33
2017-05-30T00:04:54.243Z,1004.34
2017-05-30T00:05:55.935Z,1004.32
2017-05-30T00:06:57.601Z,1004.33
2017-05-30T00:07:59.278Z,1004.38
2017-05-30T00:09:00.923Z,1004.40
2017-05-30T00:10:02.556Z,1004.44
2017-05-30T00:11:04.220Z,1004.44
2017-05-30T00:12:05.886Z,1004.47
2017-05-30T00:13:07.566Z,1004.51
2017-05-30T00:14:09.253Z,1004.52
2017-05-30T00:15:10.922Z,1004.55
2017-05-30T00:16:12.584Z,1004.54
2017-05-30T00:17:14.230Z,1004.57
2017-05-30T00:18:15.917Z,1004.58
2017-05-30T00:19:57.086Z,1004.47
2017-05-30T00:21:38.269Z,1004.32
2017-05-30T00:22:39.905Z,1004.51
2017-05-30T00:23:41.603Z,1004.62
2017-05-30T00:24:43.202Z,1004.67
2017-05-30T00:25:44.892Z,1004.66
2017-05-30T00:26:46.675Z,1004.64
2017-05-30T00:27:48.324Z,1004.62
2017-05-30T00:28:49.977Z,1004.61
2017-05-30T00:29:51.611Z,1004.63
2017-05-30T00:30:53.327Z,1004.63
2017-05-30T00:31:55.027Z,1004.59
2017-05-30T00:32:56.640Z,1004.56
2017-05-30T00:33:58.335Z,1004.51
2017-05-30T00:34:59.980Z,1004.50
2017-05-30T00:36:01.623Z,1004.51
2017-05-30T00:37:03.285Z,1004.54
2017-05-30T00:38:04.946Z,1004.54
2017-05-30T00:39:06.612Z,1004.53
2017-05-30T00:40:08.258Z,1004.49
2017-05-30T00:41:09.996Z,1004.51
2017-05-30T00:42:11.760Z,1004.49
2017-05-30T00:43:13.457Z,1004.50
2017-05-30T00:44:15.187Z,1004.49
2017-05-30T00:45:16.879Z,1004.47
2017-05-30T00:46:18.607Z,1004.45
2017-05-30T00:47:20.381Z,1004.44
2017-05-30T00:48:22.040Z,1004.43
2017-05-30T00:49:23.761Z,1004.43
2017-05-30T00:50:25.466Z,1004.45
2017-05-30T00:51:27.140Z,1004.45
2017-05-30T00:52:28.905Z,1004.45
2017-05-30T00:53:30.564Z,1004.44
2017-05-30T00:54:32.291Z,1004.46
2017-05-30T00:55:34.214Z,1004.47
2017-05-30T00:56:35.898Z,1004.53
2017-05-30T00:57:37.624Z,1004.53
2017-05-30T00:58:39.340Z,1004.55
2017-05-30T00:59:40.983Z,1004.53
2017-05-30T01:00:42.743Z,1004.54
2017-05-30T01:01:44.440Z,1004.55
2017-05-30T01:02:46.166Z,1004.55
2017-05-30T01:04:27.399Z,1004.34
2017-05-30T01:06:08.617Z,1004.29
2017-05-30T01:07:10.347Z,1004.53
2017-05-30T01:08:12.090Z,1004.72
2017-05-30T01:09:13.855Z,1004.81
2017-05-30T01:10:15.535Z,1004.83
2017-05-30T01:11:17.290Z,1004.86
2017-05-30T01:12:18.970Z,1004.87
2017-05-30T01:13:20.610Z,1004.85
2017-05-30T01:14:22.268Z,1004.88
2017-05-30T01:15:24.006Z,1004.84
2017-05-30T01:16:25.739Z,1004.89
2017-05-30T01:17:27.466Z,1004.88
2017-05-30T01:18:29.249Z,1004.90
2017-05-30T01:19:30.923Z,1004.88
2017-05-30T01:20:32.653Z,1004.86
2017-05-30T01:21:34.361Z,1004.86
2017-05-30T01:22:36.080Z,1004.83
2017-05-30T01:23:37.828Z,1004.79
2017-05-30T01:24:39.535Z,1004.76
2017-05-30T01:25:41.225Z,1004.72
2017-05-30T01:26:42.871Z,1004.71
2017-05-30T01:27:45.401Z,1004.71
2017-05-30T01:28:46.360Z,1004.72
2017-05-30T01:29:48.074Z,1004.77
2017-05-30T01:30:49.755Z,1004.80
2017-05-30T01:31:51.408Z,1004.75
2017-05-30T01:32:53.109Z,1004.70
2017-05-30T01:33:54.798Z,1004.67
2017-05-30T01:34:56.458Z,1004.61
2017-05-30T01:35:58.152Z,1004.55
2017-05-30T01:36:59.855Z,1004.51
2017-05-30T01:38:01.591Z,1004.53
2017-05-30T01:39:03.309Z,1004.53
2017-05-30T01:40:04.994Z,1004.55
2017-05-30T01:41:06.642Z,1004.55
2017-05-30T01:42:08.290Z,1004.57
2017-05-30T01:43:09.959Z,1004.61
2017-05-30T01:44:11.683Z,1004.62
2017-05-30T01:45:13.323Z,1004.61
2017-05-30T01:46:14.968Z,1004.56
2017-05-30T01:47:16.642Z,1004.60
2017-05-30T01:48:18.327Z,1004.64
2017-05-30T01:49:19.959Z,1004.67
2017-05-30T01:50:21.597Z,1004.73
2017-05-30T01:51:23.248Z,1004.76
2017-05-30T01:52:24.943Z,1004.80
2017-05-30T01:53:26.677Z,1004.79
2017-05-30T01:54:28.374Z,1004.80
2017-05-30T01:55:30.327Z,1004.80
2017-05-30T01:56:32.008Z,1004.85
2017-05-30T01:57:33.706Z,1004.80
2017-05-30T01:58:35.416Z,1004.80
2017-05-30T01:59:37.061Z,1004.82
2017-05-30T02:00:38.730Z,1004.78
2017-05-30T02:01:40.360Z,1004.75
2017-05-30T02:02:42.029Z,1004.72
2017-05-30T02:03:43.710Z,1004.71
2017-05-30T02:04:45.309Z,1004.73
2017-05-30T02:05:47.036Z,1004.73
2017-05-30T02:06:48.710Z,1004.68
2017-05-30T02:07:50.372Z,1004.73
2017-05-30T02:08:52.068Z,1004.70
2017-05-30T02:09:53.994Z,1004.68
2017-05-30T02:10:55.628Z,1004.69
2017-05-30T02:11:57.269Z,1004.58
2017-05-30T02:12:58.944Z,1004.57
2017-05-30T02:14:00.627Z,1004.55
2017-05-30T02:15:41.791Z,1004.29
2017-05-30T02:17:22.994Z,1004.03
2017-05-30T02:19:04.151Z,1003.99
2017-05-30T02:20:05.770Z,1004.30
2017-05-30T02:21:07.678Z,1004.52
2017-05-30T02:22:09.342Z,1004.74
2017-05-30T02:23:10.984Z,1004.84
2017-05-30T02:24:12.678Z,1004.92
2017-05-30T02:25:14.330Z,1005.01
2017-05-30T02:26:16.192Z,1005.05
2017-05-30T02:27:17.877Z,1005.01
2017-05-30T02:28:19.531Z,1004.98
2017-05-30T02:29:21.258Z,1005.02
2017-05-30T02:30:22.931Z,1005.03
2017-05-30T02:31:24.574Z,1005.06
2017-05-30T02:32:26.320Z,1005.09
2017-05-30T02:33:27.954Z,1005.15
2017-05-30T02:34:29.560Z,1005.18
2017-05-30T02:35:31.216Z,1005.16
2017-05-30T02:36:32.922Z,1005.19
2017-05-30T02:37:34.607Z,1005.20
2017-05-30T02:38:36.315Z,1005.17
2017-05-30T02:39:37.966Z,1005.11
2017-05-30T02:40:39.639Z,1005.10
2017-05-30T02:41:41.307Z,1005.11
2017-05-30T02:42:43.063Z,1005.09
2017-05-30T02:43:44.702Z,1005.11
2017-05-30T02:44:46.347Z,1005.07
2017-05-30T02:45:48.007Z,1005.08
2017-05-30T02:46:49.666Z,1005.03
2017-05-30T02:47:51.422Z,1005.06
2017-05-30T02:48:53.092Z,1005.06
2017-05-30T02:49:54.729Z,1005.09
2017-05-30T02:50:56.355Z,1005.12
2017-05-30T02:51:58.082Z,1005.10
2017-05-30T02:53:39.803Z,1004.80
2017-05-30T02:54:41.497Z,1004.88
2017-05-30T02:55:43.171Z,1004.91
2017-05-30T02:56:44.850Z,1004.99
2017-05-30T02:57:46.504Z,1005.08
2017-05-30T02:58:48.235Z,1005.12
2017-05-30T02:59:49.912Z,1005.12
2017-05-30T03:00:52.126Z,1005.10
2017-05-30T03:01:53.863Z,1005.09
2017-05-30T03:02:55.489Z,1005.15
2017-05-30T03:03:57.124Z,1005.17
2017-05-30T03:04:58.788Z,1005.15
2017-05-30T03:06:00.442Z,1005.15
2017-05-30T03:07:02.131Z,1005.15
2017-05-30T03:08:03.804Z,1005.17
2017-05-30T03:09:05.567Z,1005.20
2017-05-30T03:10:07.325Z,1005.19
2017-05-30T03:11:08.973Z,1005.15
2017-05-30T03:12:10.639Z,1005.12
2017-05-30T03:13:12.570Z,1005.07
2017-05-30T03:14:14.256Z,1005.11
2017-05-30T03:15:15.976Z,1005.07
2017-05-30T03:16:17.635Z,1005.11
2017-05-30T03:17:19.302Z,1005.13
2017-05-30T03:18:20.910Z,1005.22
2017-05-30T03:19:22.579Z,1005.25
2017-05-30T03:20:24.379Z,1005.27
2017-05-30T03:21:26.058Z,1005.27
2017-05-30T03:22:27.732Z,1005.31
2017-05-30T03:23:29.366Z,1005.31
2017-05-30T03:24:32.119Z,1005.36
2017-05-30T03:25:33.764Z,1005.40
2017-05-30T03:27:14.941Z,1005.25
2017-05-30T03:28:56.107Z,1005.06
2017-05-30T03:30:37.351Z,1005.05
2017-05-30T03:31:38.960Z,1005.30
2017-05-30T03:32:40.592Z,1005.46
2017-05-30T03:33:42.314Z,1005.54
2017-05-30T03:34:43.938Z,1005.54
2017-05-30T03:35:45.589Z,1005.55
2017-05-30T03:36:47.262Z,1005.56
2017-05-30T03:37:49.751Z,1005.60
2017-05-30T03:38:51.500Z,1005.62
2017-05-30T03:39:53.878Z,1005.63
2017-05-30T03:40:55.571Z,1005.63
2017-05-30T03:41:57.265Z,1005.67
2017-05-30T03:42:58.986Z,1005.66
2017-05-30T03:44:00.753Z,1005.68
2017-05-30T03:45:03.541Z,1005.69
2017-05-30T03:46:05.645Z,1005.68
2017-05-30T03:47:08.429Z,1005.65
2017-05-30T03:48:10.190Z,1005.70
2017-05-30T03:49:11.962Z,1005.71
2017-05-30T03:50:13.678Z,1005.73
2017-05-30T03:51:15.364Z,1005.71
2017-05-30T03:52:17.106Z,1005.73
2017-05-30T03:53:18.816Z,1005.71
2017-05-30T03:54:20.540Z,1005.73
2017-05-30T03:55:22.252Z,1005.76
2017-05-30T03:56:23.925Z,1005.73
2017-05-30T03:57:25.662Z,1005.75
2017-05-30T03:58:28.345Z,1005.78
2017-05-30T03:59:31.069Z,1005.76
2017-05-30T04:00:33.631Z,1005.75
2017-05-30T04:01:36.172Z,1005.76
2017-05-30T04:02:39.009Z,1005.72
2017-05-30T04:03:40.662Z,1005.73
2017-05-30T04:04:42.323Z,1005.70
2017-05-30T04:05:44.023Z,1005.73
2017-05-30T04:06:45.677Z,1005.75
2017-05-30T04:07:47.352Z,1005.79
2017-05-30T04:08:49.102Z,1005.81
2017-05-30T04:09:50.755Z,1005.85
2017-05-30T04:10:52.392Z,1005.85
2017-05-30T04:11:54.129Z,1005.84
2017-05-30T04:12:55.863Z,1005.79
2017-05-30T04:13:58.691Z,1005.83
2017-05-30T04:15:00.332Z,1005.83
2017-05-30T04:16:01.996Z,1005.88
2017-05-30T04:17:03.711Z,1005.90
2017-05-30T04:18:05.376Z,1005.85
2017-05-30T04:19:07.159Z,1005.89
2017-05-30T04:20:08.844Z,1005.95
2017-05-30T04:21:10.564Z,1005.96
2017-05-30T04:22:12.288Z,1005.99
2017-05-30T04:23:13.960Z,1006.09
2017-05-30T04:24:15.672Z,1006.19
2017-05-30T04:25:17.339Z,1006.17
2017-05-30T04:26:19.161Z,1006.17
2017-05-30T04:27:21.656Z,1006.06
2017-05-30T04:28:23.329Z,1006.01
2017-05-30T04:29:25.001Z,1006.00
2017-05-30T04:30:26.694Z,1006.01
2017-05-30T04:31:28.345Z,1006.00
2017-05-30T04:32:30.087Z,1006.02
2017-05-30T04:33:31.776Z,1006.05
2017-05-30T04:34:33.413Z,1006.09
2017-05-30T04:35:35.058Z,1006.09
2017-05-30T04:36:36.731Z,1006.07
2017-05-30T04:37:38.383Z,1006.02
2017-05-30T04:39:19.542Z,1005.70
2017-05-30T04:41:00.659Z,1005.65
2017-05-30T04:42:02.371Z,1005.87
2017-05-30T04:43:04.029Z,1006.00
2017-05-30T04:44:05.657Z,1006.10
2017-05-30T04:45:07.321Z,1006.17
2017-05-30T04:46:09.040Z,1006.16
2017-05-30T04:47:10.742Z,1006.19
2017-05-30T04:48:12.385Z,1006.18
2017-05-30T04:49:14.040Z,1006.17
2017-05-30T04:50:15.693Z,1006.13
2017-05-30T04:51:17.432Z,1006.17
2017-05-30T04:52:19.077Z,1006.16
2017-05-30T04:53:20.731Z,1006.16
2017-05-30T04:54:22.403Z,1006.18
2017-05-30T04:55:24.041Z,1006.21
2017-05-30T04:56:25.708Z,1006.27
2017-05-30T04:57:27.337Z,1006.29
2017-05-30T04:58:29.044Z,1006.33
2017-05-30T04:59:30.709Z,1006.34
2017-05-30T05:00:32.363Z,1006.34
2017-05-30T05:01:34.064Z,1006.34
2017-05-30T05:02:35.721Z,1006.39
2017-05-30T05:03:37.392Z,1006.43
2017-05-30T05:04:39.068Z,1006.49
2017-05-30T05:05:40.747Z,1006.56
2017-05-30T05:06:42.416Z,1006.71
2017-05-30T05:07:44.098Z,1006.75
2017-05-30T05:08:45.801Z,1006.51
2017-05-30T05:09:47.428Z,1006.50
2017-05-30T05:10:49.076Z,1006.47
2017-05-30T05:11:50.716Z,1006.39
2017-05-30T05:12:52.373Z,1006.40
2017-05-30T05:13:54.062Z,1006.57
2017-05-30T05:14:55.710Z,1007.05
2017-05-30T05:15:57.449Z,1006.91
2017-05-30T05:16:59.763Z,1007.11
2017-05-30T05:18:01.441Z,1007.56
2017-05-30T05:19:03.187Z,1007.58
2017-05-30T05:20:04.842Z,1007.56
2017-05-30T05:21:06.507Z,1007.79
2017-05-30T05:22:08.208Z,1008.00
2017-05-30T05:23:09.812Z,1007.95
2017-05-30T05:24:11.464Z,1008.20
2017-05-30T05:25:13.160Z,1008.47
2017-05-30T05:26:14.785Z,1008.35
2017-05-30T05:27:18.070Z,1008.40
2017-05-30T05:28:19.714Z,1008.48
2017-05-30T05:29:21.425Z,1008.59
2017-05-30T05:30:23.106Z,1008.70
2017-05-30T05:31:24.706Z,1008.63
2017-05-30T05:32:26.405Z,1008.72
2017-05-30T05:33:28.062Z,1008.76
2017-05-30T05:34:29.770Z,1008.78
2017-05-30T05:35:31.392Z,1008.94
2017-05-30T05:36:33.047Z,1008.80
2017-05-30T05:37:34.689Z,1008.70
2017-05-30T05:38:36.361Z,1008.76
2017-05-30T05:39:38.102Z,1008.75
2017-05-30T05:40:39.763Z,1008.35
2017-05-30T05:41:41.406Z,1008.29
2017-05-30T05:42:43.728Z,1007.92
2017-05-30T05:43:45.386Z,1007.65
2017-05-30T05:44:47.095Z,1006.65
2017-05-30T05:45:48.805Z,1006.15
2017-05-30T05:46:50.578Z,1006.00
2017-05-30T05:47:52.287Z,1006.05
2017-05-30T05:48:53.949Z,1006.11
2017-05-30T05:50:35.234Z,1006.03
2017-05-30T05:52:16.486Z,1006.20
2017-05-30T05:53:18.144Z,1006.69
2017-05-30T05:54:19.819Z,1007.15
2017-05-30T05:55:21.470Z,1007.54
2017-05-30T05:56:23.214Z,1007.95
2017-05-30T05:57:24.926Z,1008.12
2017-05-30T05:58:26.642Z,1008.72
2017-05-30T05:59:28.353Z,1008.91
2017-05-30T06:00:30.064Z,1009.55
2017-05-30T06:01:31.770Z,1009.38
2017-05-30T06:02:33.487Z,1009.77
2017-05-30T06:03:35.174Z,1009.59
2017-05-30T06:04:36.841Z,1009.75
2017-05-30T06:05:38.456Z,1009.70
2017-05-30T06:06:40.129Z,1009.70
2017-05-30T06:07:41.862Z,1009.74
2017-05-30T06:08:43.562Z,1009.81
2017-05-30T06:09:45.254Z,1009.92
2017-05-30T06:10:46.917Z,1009.99
2017-05-30T06:11:48.699Z,1009.96
2017-05-30T06:12:50.379Z,1009.98
2017-05-30T06:13:52.053Z,1009.71
2017-05-30T06:14:53.717Z,1009.64
2017-05-30T06:15:55.353Z,1009.77
2017-05-30T06:16:57.047Z,1008.96
2017-05-30T06:17:58.738Z,1008.59
2017-05-30T06:19:00.440Z,1008.49
2017-05-30T06:20:02.090Z,1009.27
2017-05-30T06:21:04.943Z,1009.45
2017-05-30T06:22:06.763Z,1009.72
2017-05-30T06:23:08.468Z,1009.93
2017-05-30T06:24:10.207Z,1009.97
2017-05-30T06:25:11.900Z,1010.08
2017-05-30T06:26:13.594Z,1010.13
2017-05-30T06:27:15.334Z,1009.81
2017-05-30T06:28:16.981Z,1009.34
2017-05-30T06:29:18.707Z,1008.89
2017-05-30T06:30:20.384Z,1009.35
2017-05-30T06:31:22.035Z,1009.29
2017-05-30T06:32:23.724Z,1009.58
2017-05-30T06:33:25.399Z,1010.05
2017-05-30T06:34:27.101Z,1010.50
2017-05-30T06:35:28.992Z,1010.63
2017-05-30T06:36:30.712Z,1010.38
2017-05-30T06:37:32.438Z,1009.86
2017-05-30T06:38:34.145Z,1009.80
2017-05-30T06:39:35.823Z,1010.15
2017-05-30T06:40:37.586Z,1010.52
2017-05-30T06:41:39.328Z,1011.04
2017-05-30T06:42:41.151Z,1011.23
2017-05-30T06:43:42.898Z,1011.18
2017-05-30T06:44:44.585Z,1011.28
2017-05-30T06:45:46.280Z,1011.36
2017-05-30T06:46:47.990Z,1011.15
2017-05-30T06:47:49.742Z,1011.26
2017-05-30T06:48:51.483Z,1010.84
2017-05-30T06:49:53.163Z,1010.96
2017-05-30T06:50:54.867Z,1011.14
2017-05-30T06:51:56.604Z,1010.57
2017-05-30T06:52:58.375Z,1009.05
2017-05-30T06:54:00.316Z,1007.37
2017-05-30T06:55:02.037Z,1006.89
2017-05-30T06:56:03.712Z,1007.12
2017-05-30T06:57:06.411Z,1006.90
2017-05-30T06:58:08.171Z,1006.26
2017-05-30T06:59:09.826Z,1006.67
2017-05-30T07:00:11.508Z,1006.17
2017-05-30T07:01:52.754Z,1005.87
2017-05-30T07:03:34.382Z,1006.15
2017-05-30T07:04:36.072Z,1006.19
2017-05-30T07:05:37.803Z,1006.40
2017-05-30T07:06:39.555Z,1006.64
2017-05-30T07:07:41.233Z,1006.81
2017-05-30T07:08:43.044Z,1006.89
2017-05-30T07:09:44.819Z,1006.97
2017-05-30T07:10:46.608Z,1007.17
2017-05-30T07:11:48.377Z,1007.08
2017-05-30T07:12:50.113Z,1007.15
2017-05-30T07:13:51.949Z,1007.20
2017-05-30T07:14:53.603Z,1007.20
2017-05-30T07:15:55.296Z,1007.16
2017-05-30T07:16:57.000Z,1007.10
2017-05-30T07:17:58.666Z,1007.05
2017-05-30T07:19:00.435Z,1007.16
2017-05-30T07:20:02.143Z,1007.19
2017-05-30T07:21:03.826Z,1007.21
2017-05-30T07:22:05.476Z,1007.22
2017-05-30T07:23:07.223Z,1007.24
2017-05-30T07:24:09.126Z,1007.27
2017-05-30T07:25:10.842Z,1007.32
2017-05-30T07:26:13.358Z,1007.35
2017-05-30T07:27:15.031Z,1007.48
2017-05-30T07:28:16.691Z,1007.73
2017-05-30T07:29:18.906Z,1008.45
2017-05-30T07:30:20.871Z,1008.67
2017-05-30T07:31:24.661Z,1008.39
2017-05-30T07:32:26.334Z,1007.90
2017-05-30T07:33:28.032Z,1007.63
2017-05-30T07:34:29.727Z,1007.57
2017-05-30T07:35:31.523Z,1007.45
2017-05-30T07:36:33.231Z,1007.46
2017-05-30T07:37:35.967Z,1007.69
2017-05-30T07:38:37.600Z,1008.02
2017-05-30T07:39:39.290Z,1008.32
2017-05-30T07:40:40.927Z,1008.32
2017-05-30T07:41:42.628Z,1008.06
2017-05-30T07:42:44.292Z,1007.75
2017-05-30T07:43:45.923Z,1007.60
2017-05-30T07:44:47.601Z,1009.09
2017-05-30T07:45:49.311Z,1010.28
2017-05-30T07:46:51.048Z,1010.71
2017-05-30T07:47:52.745Z,1010.22
2017-05-30T07:48:54.448Z,1008.77
2017-05-30T07:49:56.152Z,1009.57
2017-05-30T07:50:57.846Z,1010.01
2017-05-30T07:51:59.590Z,1010.38
2017-05-30T07:53:01.243Z,1010.57
2017-05-30T07:54:02.908Z,1010.69
2017-05-30T07:55:04.678Z,1010.90
2017-05-30T07:56:06.340Z,1011.29
2017-05-30T07:57:08.088Z,1008.86
2017-05-30T07:58:09.782Z,1007.34
2017-05-30T07:59:11.522Z,1008.14
2017-05-30T08:00:13.241Z,1009.04
2017-05-30T08:01:14.893Z,1007.80
2017-05-30T08:02:16.580Z,1010.01
2017-05-30T08:03:18.269Z,1011.02
2017-05-30T08:04:20.013Z,1011.50
2017-05-30T08:05:21.710Z,1011.45
2017-05-30T08:06:23.400Z,1011.63
2017-05-30T08:07:25.172Z,1011.65
2017-05-30T08:08:26.813Z,1011.35
2017-05-30T08:09:28.444Z,1011.42
2017-05-30T08:10:30.069Z,1011.28
2017-05-30T08:11:31.768Z,1011.26
2017-05-30T08:12:33.438Z,1011.27
2017-05-30T08:14:14.702Z,1011.07
2017-05-30T08:15:55.885Z,1010.84
2017-05-30T08:16:57.569Z,1009.76
2017-05-30T08:17:59.276Z,1010.34
2017-05-30T08:19:00.967Z,1011.12
2017-05-30T08:20:02.698Z,1011.16
2017-05-30T08:21:04.415Z,1010.68
2017-05-30T08:22:06.092Z,1010.25
2017-05-30T08:23:07.865Z,1008.32
2017-05-30T08:24:09.580Z,1010.36
2017-05-30T08:25:11.381Z,1010.62
2017-05-30T08:26:13.120Z,1009.84
2017-05-30T08:27:14.828Z,1010.28
2017-05-30T08:28:16.500Z,1010.47
2017-05-30T08:29:18.196Z,1010.15
2017-05-30T08:30:19.964Z,1010.22
2017-05-30T08:31:21.665Z,1010.38
2017-05-30T08:32:23.406Z,1010.60
2017-05-30T08:33:25.114Z,1010.61
2017-05-30T08:34:26.791Z,1010.57
2017-05-30T08:35:28.518Z,1010.35
2017-05-30T08:36:31.059Z,1010.26
2017-05-30T08:37:32.842Z,1010.08
2017-05-30T08:38:34.552Z,1009.93
2017-05-30T08:39:36.289Z,1009.79
2017-05-30T08:40:38.008Z,1009.41
2017-05-30T08:41:39.744Z,1008.23
2017-05-30T08:42:41.509Z,1008.56
2017-05-30T08:43:43.254Z,1007.99
2017-05-30T08:44:45.018Z,1008.61
2017-05-30T08:45:46.668Z,1007.77
2017-05-30T08:46:48.354Z,1006.97
2017-05-30T08:47:50.184Z,1006.40
2017-05-30T08:48:51.946Z,1006.65
2017-05-30T08:49:53.658Z,1009.26
2017-05-30T08:50:55.331Z,1008.66
2017-05-30T08:51:57.062Z,1009.88
2017-05-30T08:52:58.881Z,1010.10
2017-05-30T08:54:00.577Z,1009.92
2017-05-30T08:55:02.535Z,1009.79
2017-05-30T08:56:04.233Z,1007.17
2017-05-30T08:57:05.897Z,1008.88
2017-05-30T08:58:07.692Z,1009.22
2017-05-30T08:59:09.401Z,1009.28
2017-05-30T09:00:11.165Z,1009.12
2017-05-30T09:01:12.847Z,1009.11
2017-05-30T09:02:14.528Z,1009.07
2017-05-30T09:03:16.150Z,1009.01
2017-05-30T09:04:18.012Z,1008.87
2017-05-30T09:05:19.746Z,1008.21
2017-05-30T09:06:21.452Z,1008.58
2017-05-30T09:07:23.221Z,1008.77
2017-05-30T09:08:24.877Z,1008.71
2017-05-30T09:09:26.630Z,1006.70
2017-05-30T09:10:28.326Z,1008.27
2017-05-30T09:11:30.043Z,1005.66
2017-05-30T09:12:32.459Z,1006.56
2017-05-30T09:13:34.128Z,1006.80
2017-05-30T09:14:35.867Z,1007.80
2017-05-30T09:15:37.533Z,1006.61
2017-05-30T09:16:39.208Z,1008.29
2017-05-30T09:17:40.839Z,1008.58
2017-05-30T09:18:42.497Z,1007.77
2017-05-30T09:19:44.185Z,1008.27
2017-05-30T09:20:45.833Z,1007.97
2017-05-30T09:21:47.522Z,1007.47
2017-05-30T09:22:49.196Z,1007.96
2017-05-30T09:23:50.925Z,1006.04
2017-05-30T09:25:33.537Z,1006.27
2017-05-30T09:26:35.235Z,1005.57
2017-05-30T09:27:36.938Z,1007.21
2017-05-30T09:28:38.563Z,1006.70
2017-05-30T09:29:40.181Z,1005.91
2017-05-30T09:30:41.912Z,1006.61
2017-05-30T09:31:43.592Z,1006.65
2017-05-30T09:32:45.278Z,1006.37
2017-05-30T09:33:46.940Z,1006.24
2017-05-30T09:34:48.582Z,1006.46
2017-05-30T09:35:50.322Z,1007.52
2017-05-30T09:36:52.060Z,1007.60
2017-05-30T09:37:53.964Z,1008.50
2017-05-30T09:38:55.716Z,1007.58
2017-05-30T09:39:57.508Z,1007.00
2017-05-30T09:40:59.276Z,1006.67
2017-05-30T09:42:00.998Z,1007.91
2017-05-30T09:43:02.722Z,1008.63
2017-05-30T09:44:04.471Z,1009.34
2017-05-30T09:45:06.255Z,1008.87
2017-05-30T09:46:08.003Z,1007.89
2017-05-30T09:47:09.726Z,1007.37
2017-05-30T09:48:11.440Z,1006.86
2017-05-30T09:49:13.151Z,1007.71
2017-05-30T09:50:14.949Z,1007.85
2017-05-30T09:51:17.273Z,1007.52
2017-05-30T09:52:18.997Z,1007.74
2017-05-30T09:53:20.642Z,1007.43
2017-05-30T09:54:22.379Z,1007.10
2017-05-30T09:55:24.095Z,1007.86
2017-05-30T09:56:25.740Z,1007.51
2017-05-30T09:57:27.473Z,1008.60
2017-05-30T09:58:29.147Z,1007.70
2017-05-30T09:59:30.796Z,1007.07
2017-05-30T10:00:32.539Z,1007.07
2017-05-30T10:01:34.170Z,1006.95
2017-05-30T10:02:35.811Z,1006.90
2017-05-30T10:03:37.478Z,1007.91
2017-05-30T10:04:39.192Z,1009.05
2017-05-30T10:05:40.940Z,1009.35
2017-05-30T10:06:42.712Z,1008.52
2017-05-30T10:07:44.451Z,1008.04
2017-05-30T10:08:46.360Z,1009.04
2017-05-30T10:09:48.117Z,1008.05
2017-05-30T10:10:49.817Z,1007.38
2017-05-30T10:11:51.495Z,1007.60
2017-05-30T10:12:53.194Z,1007.27
2017-05-30T10:13:54.904Z,1007.08
2017-05-30T10:14:56.692Z,1007.19
2017-05-30T10:15:58.396Z,1007.46
2017-05-30T10:17:00.125Z,1007.83
2017-05-30T10:18:01.814Z,1008.09
2017-05-30T10:19:03.514Z,1007.87
2017-05-30T10:20:05.236Z,1007.33
2017-05-30T10:21:06.990Z,1007.18
2017-05-30T10:22:08.711Z,1007.07
2017-05-30T10:23:10.420Z,1006.95
2017-05-30T10:24:12.125Z,1006.90
2017-05-30T10:25:13.853Z,1006.86
2017-05-30T10:26:15.520Z,1006.85
2017-05-30T10:27:17.249Z,1006.81
2017-05-30T10:28:18.940Z,1006.83
2017-05-30T10:29:20.621Z,1006.84
2017-05-30T10:30:22.313Z,1007.09
2017-05-30T10:31:24.026Z,1007.93
2017-05-30T10:32:25.691Z,1008.22
2017-05-30T10:33:27.376Z,1008.23
2017-05-30T10:34:29.020Z,1008.02
2017-05-30T10:35:30.758Z,1007.64
2017-05-30T10:36:32.468Z,1007.37
2017-05-30T10:37:34.116Z,1007.30
2017-05-30T10:38:36.579Z,1007.50
2017-05-30T10:39:38.281Z,1008.09
2017-05-30T10:40:39.971Z,1008.07
2017-05-30T10:41:41.668Z,1008.19
2017-05-30T10:42:43.331Z,1008.08
2017-05-30T10:43:45.063Z,1008.10
2017-05-30T10:44:46.754Z,1008.02
2017-05-30T10:45:48.371Z,1007.86
2017-05-30T10:46:50.100Z,1007.79
2017-05-30T10:47:51.752Z,1007.70
2017-05-30T10:48:53.428Z,1007.63
2017-05-30T10:49:55.341Z,1007.59
2017-05-30T10:50:57.249Z,1007.60
2017-05-30T10:51:58.981Z,1007.61
2017-05-30T10:53:00.625Z,1007.60
2017-05-30T10:54:02.275Z,1007.55
2017-05-30T10:55:03.917Z,1007.60
2017-05-30T10:56:05.640Z,1007.58
2017-05-30T10:57:07.420Z,1007.58
2017-05-30T10:58:09.132Z,1007.56
2017-05-30T10:59:10.762Z,1007.58
2017-05-30T11:00:12.448Z,1007.66
2017-05-30T11:01:14.081Z,1007.67
2017-05-30T11:02:15.914Z,1007.62
2017-05-30T11:03:17.599Z,1007.63
2017-05-30T11:04:19.282Z,1007.59
2017-05-30T11:05:21.787Z,1007.59
2017-05-30T11:06:23.467Z,1007.56
2017-05-30T11:07:25.199Z,1007.45
2017-05-30T11:08:26.839Z,1007.34
2017-05-30T11:09:28.473Z,1007.43
2017-05-30T11:10:30.104Z,1007.53
2017-05-30T11:11:31.787Z,1007.66
2017-05-30T11:12:33.488Z,1007.86
2017-05-30T11:13:35.193Z,1008.03
2017-05-30T11:14:36.918Z,1008.11
2017-05-30T11:15:38.651Z,1008.05
2017-05-30T11:16:40.284Z,1007.95
2017-05-30T11:17:41.959Z,1007.82
2017-05-30T11:18:43.636Z,1007.67
2017-05-30T11:19:45.302Z,1007.52
2017-05-30T11:20:47.034Z,1007.49
2017-05-30T11:21:48.668Z,1007.55
2017-05-30T11:22:50.339Z,1007.47
2017-05-30T11:23:52.067Z,1007.39
2017-05-30T11:24:53.712Z,1007.42
2017-05-30T11:25:55.329Z,1007.54
2017-05-30T11:26:57.052Z,1007.44
2017-05-30T11:27:58.730Z,1007.32
2017-05-30T11:29:00.458Z,1007.29
2017-05-30T11:30:02.116Z,1007.22
2017-05-30T11:31:04.123Z,1007.17
2017-05-30T11:32:05.783Z,1007.23
2017-05-30T11:33:07.499Z,1007.27
2017-05-30T11:34:09.273Z,1007.22
2017-05-30T11:35:10.989Z,1007.20
2017-05-30T11:36:12.642Z,1007.20
2017-05-30T11:37:14.322Z,1007.16
2017-05-30T11:38:16.016Z,1007.19
2017-05-30T11:39:17.743Z,1007.19
2017-05-30T11:40:19.436Z,1007.14
2017-05-30T11:41:21.065Z,1007.16
2017-05-30T11:42:23.019Z,1007.19
2017-05-30T11:43:25.522Z,1007.20
2017-05-30T11:44:27.286Z,1007.20
2017-05-30T11:45:29.028Z,1007.23
2017-05-30T11:46:30.732Z,1007.47
2017-05-30T11:49:41.649Z,1007.61
2017-05-30T11:50:43.329Z,1007.59
2017-05-30T11:51:44.965Z,1007.60
2017-05-30T11:52:46.653Z,1007.57
2017-05-30T11:53:48.311Z,1007.55
2017-05-30T11:54:49.972Z,1007.50
2017-05-30T11:55:51.628Z,1007.53
2017-05-30T11:56:53.266Z,1007.56
2017-05-30T11:57:54.924Z,1007.62
2017-05-30T11:58:56.575Z,1007.68
2017-05-30T11:59:58.285Z,1007.65
2017-05-30T12:01:00.074Z,1007.63
2017-05-30T12:02:01.781Z,1007.53
2017-05-30T12:03:03.442Z,1007.38
2017-05-30T12:04:05.101Z,1007.27
2017-05-30T12:05:06.803Z,1007.22
2017-05-30T12:06:08.531Z,1007.16
2017-05-30T12:07:10.197Z,1007.15
2017-05-30T12:08:11.857Z,1007.12
2017-05-30T12:09:13.507Z,1007.08
2017-05-30T12:10:15.194Z,1007.11
2017-05-30T12:11:16.958Z,1007.18
2017-05-30T12:12:18.661Z,1007.18
2017-05-30T12:13:20.314Z,1007.20
2017-05-30T12:14:21.968Z,1007.19
2017-05-30T12:15:23.651Z,1007.21
2017-05-30T12:16:25.404Z,1007.18
2017-05-30T12:17:28.013Z,1007.16
2017-05-30T12:18:29.723Z,1007.14
2017-05-30T12:19:31.371Z,1007.13
2017-05-30T12:20:33.033Z,1007.13
2017-05-30T12:21:34.687Z,1007.14
2017-05-30T12:22:36.309Z,1007.10
2017-05-30T12:23:38.150Z,1007.15
2017-05-30T12:24:39.806Z,1007.16
2017-05-30T12:25:41.520Z,1007.18
2017-05-30T12:26:43.194Z,1007.23
2017-05-30T12:27:44.891Z,1007.27
2017-05-30T12:28:46.575Z,1007.28
2017-05-30T12:29:48.355Z,1007.31
2017-05-30T12:30:50.023Z,1007.33
2017-05-30T12:31:51.706Z,1007.42
2017-05-30T12:32:53.400Z,1007.45
2017-05-30T12:33:55.085Z,1007.32
2017-05-30T12:34:56.874Z,1007.26
2017-05-30T12:35:58.660Z,1007.17
2017-05-30T12:37:00.396Z,1007.18
2017-05-30T12:38:02.189Z,1007.19
2017-05-30T12:39:03.905Z,1007.20
2017-05-30T12:40:05.670Z,1007.27
2017-05-30T12:41:07.359Z,1007.43
2017-05-30T12:42:09.112Z,1007.55